createdAt,value
2022-09-26T00:01:35.786Z,12.60
2022-09-26T00:04:05.636Z,12.50
2022-09-26T00:06:34.036Z,12.60
2022-09-26T00:09:02.407Z,12.60
2022-09-26T00:11:31.843Z,12.60
2022-09-26T00:14:03.223Z,12.70
2022-09-26T00:16:31.709Z,12.70
2022-09-26T00:19:00.308Z,12.70
2022-09-26T00:21:29.622Z,12.70
2022-09-26T00:23:58.524Z,12.60
2022-09-26T00:26:27.152Z,12.60
2022-09-26T00:28:56.493Z,12.50
2022-09-26T00:31:27.237Z,12.40
2022-09-26T00:33:55.983Z,12.30
2022-09-26T00:36:37.031Z,12.20
2022-09-26T00:39:07.376Z,12.20
2022-09-26T00:41:35.971Z,12.10
2022-09-26T00:44:04.563Z,12.10
2022-09-26T00:46:36.776Z,12.10
2022-09-26T00:49:08.206Z,12.10
2022-09-26T00:51:57.832Z,12.10
2022-09-26T00:54:27.126Z,12.00
2022-09-26T00:56:57.257Z,12.00
2022-09-26T00:59:28.507Z,12.00
2022-09-26T01:02:00.408Z,12.00
2022-09-26T01:04:29.464Z,12.00
2022-09-26T01:06:59.177Z,12.00
2022-09-26T01:09:27.974Z,11.90
2022-09-26T01:11:56.799Z,11.80
2022-09-26T01:14:25.634Z,11.70
2022-09-26T01:16:54.782Z,11.60
2022-09-26T01:19:26.790Z,11.50
2022-09-26T01:22:08.557Z,11.50
2022-09-26T01:24:41.371Z,11.50
2022-09-26T01:27:15.433Z,11.50
2022-09-26T01:30:01.904Z,11.50
2022-09-26T01:32:52.517Z,11.50
2022-09-26T01:35:28.378Z,11.50
2022-09-26T01:38:01.659Z,11.50
2022-09-26T01:40:33.124Z,11.40
2022-09-26T01:43:06.830Z,11.30
2022-09-26T01:45:56.295Z,11.30
2022-09-26T01:48:30.925Z,11.40
2022-09-26T01:51:03.779Z,11.30
2022-09-26T01:53:37.063Z,11.30
2022-09-26T01:56:07.041Z,11.30
2022-09-26T01:58:56.390Z,11.40
2022-09-26T02:01:26.890Z,11.30
2022-09-26T02:03:58.345Z,11.40
2022-09-26T02:06:30.016Z,11.40
2022-09-26T02:09:00.986Z,11.50
2022-09-26T02:11:30.001Z,11.60
2022-09-26T02:14:03.849Z,11.50
2022-09-26T02:16:33.749Z,11.50
2022-09-26T02:19:05.742Z,11.50
2022-09-26T02:21:34.151Z,11.50
2022-09-26T02:24:02.979Z,11.50
2022-09-26T02:26:31.495Z,11.40
2022-09-26T02:29:01.830Z,11.40
2022-09-26T02:31:33.124Z,11.40
2022-09-26T02:34:01.547Z,11.40
2022-09-26T02:36:33.449Z,11.30
2022-09-26T02:39:03.925Z,11.20
2022-09-26T02:41:59.835Z,11.20
2022-09-26T02:44:46.480Z,11.20
2022-09-26T02:47:32.716Z,11.20
2022-09-26T02:50:14.767Z,11.20
2022-09-26T02:52:51.114Z,11.30
2022-09-26T02:55:28.047Z,11.30
2022-09-26T02:58:05.786Z,11.30
2022-09-26T03:00:40.753Z,11.30
2022-09-26T03:03:15.137Z,11.30
2022-09-26T03:05:45.816Z,11.30
2022-09-26T03:08:17.698Z,11.30
2022-09-26T03:10:47.044Z,11.20
2022-09-26T03:13:16.326Z,11.20
2022-09-26T03:15:50.779Z,11.20
2022-09-26T03:18:24.968Z,11.20
2022-09-26T03:20:55.171Z,11.10
2022-09-26T03:23:25.641Z,11.10
2022-09-26T03:26:00.719Z,11.00
2022-09-26T03:28:33.988Z,11.00
2022-09-26T03:31:05.633Z,11.00
2022-09-26T03:33:45.031Z,11.00
2022-09-26T03:36:13.868Z,11.00
2022-09-26T03:38:44.034Z,11.00
2022-09-26T03:41:31.454Z,11.00
2022-09-26T03:44:11.406Z,11.00
2022-09-26T03:46:58.386Z,11.00
2022-09-26T03:49:27.104Z,10.90
2022-09-26T03:51:55.543Z,10.90
2022-09-26T03:54:25.324Z,10.90
2022-09-26T03:56:54.421Z,10.90
2022-09-26T03:59:22.987Z,11.00
2022-09-26T04:01:52.611Z,11.00
2022-09-26T04:04:21.115Z,11.00
2022-09-26T04:06:51.426Z,10.90
2022-09-26T04:09:20.105Z,10.90
2022-09-26T04:11:53.396Z,10.90
2022-09-26T04:14:22.796Z,10.80
2022-09-26T04:16:58.582Z,10.80
2022-09-26T04:19:41.282Z,10.80
2022-09-26T04:22:09.773Z,10.80
2022-09-26T04:24:38.857Z,10.80
2022-09-26T04:27:09.434Z,10.80
2022-09-26T04:29:38.745Z,10.80
2022-09-26T04:32:13.997Z,10.80
2022-09-26T04:35:04.237Z,10.80
2022-09-26T04:37:37.221Z,10.80
2022-09-26T04:40:06.400Z,10.70
2022-09-26T04:42:38.268Z,10.70
2022-09-26T04:45:07.443Z,10.70
2022-09-26T04:47:35.835Z,10.80
2022-09-26T04:50:22.779Z,10.90
2022-09-26T04:53:06.593Z,11.00
2022-09-26T04:55:40.423Z,11.00
2022-09-26T04:58:10.306Z,11.10
2022-09-26T05:00:45.892Z,11.30
2022-09-26T05:03:16.867Z,11.30
2022-09-26T05:05:47.618Z,11.50
2022-09-26T05:08:16.305Z,11.60
2022-09-26T05:10:44.869Z,11.70
2022-09-26T05:13:14.764Z,11.80
2022-09-26T05:15:43.095Z,11.90
2022-09-26T05:18:12.609Z,12.10
2022-09-26T05:20:44.426Z,12.30
2022-09-26T05:23:48.781Z,12.40
2022-09-26T05:26:21.598Z,12.70
2022-09-26T05:28:53.213Z,12.90
2022-09-26T05:31:26.513Z,13.20
2022-09-26T05:33:55.027Z,13.20
2022-09-26T05:36:24.366Z,13.40
2022-09-26T05:38:53.437Z,13.50
2022-09-26T05:41:21.793Z,13.60
2022-09-26T05:43:52.316Z,13.80
2022-09-26T05:46:21.870Z,13.90
2022-09-26T05:48:53.363Z,13.90
2022-09-26T05:51:24.647Z,14.10
2022-09-26T05:53:53.262Z,14.20
2022-09-26T05:56:24.885Z,14.30
2022-09-26T05:59:14.952Z,14.50
2022-09-26T06:02:01.800Z,14.50
2022-09-26T06:04:53.863Z,14.50
2022-09-26T06:07:41.024Z,14.80
2022-09-26T06:10:17.162Z,14.90
2022-09-26T06:12:54.867Z,15.00
2022-09-26T06:15:25.120Z,15.10
2022-09-26T06:17:59.022Z,15.20
2022-09-26T06:20:45.716Z,15.30
2022-09-26T06:23:15.238Z,15.50
2022-09-26T06:25:46.789Z,15.60
2022-09-26T06:28:15.631Z,15.70
2022-09-26T06:30:45.858Z,15.80
2022-09-26T06:33:23.344Z,16.00
2022-09-26T06:36:05.032Z,16.10
2022-09-26T06:38:38.943Z,16.20
2022-09-26T06:41:16.727Z,16.40
2022-09-26T06:43:45.564Z,16.50
2022-09-26T06:46:50.356Z,16.60
2022-09-26T06:49:23.886Z,16.70
2022-09-26T06:52:02.981Z,16.80
2022-09-26T06:54:31.437Z,16.90
2022-09-26T06:57:00.013Z,17.10
2022-09-26T06:59:28.676Z,17.20
2022-09-26T07:02:13.289Z,17.30
2022-09-26T07:05:00.521Z,17.50
2022-09-26T07:07:42.107Z,17.60
2022-09-26T07:10:18.721Z,17.70
2022-09-26T07:13:02.488Z,17.80
2022-09-26T07:15:50.996Z,17.90
2022-09-26T07:18:46.824Z,18.00
2022-09-26T07:21:23.341Z,18.20
2022-09-26T07:24:02.701Z,18.10
2022-09-26T07:26:31.213Z,18.40
2022-09-26T07:28:59.800Z,18.60
2022-09-26T07:31:30.661Z,18.70
2022-09-26T07:34:11.516Z,18.80
2022-09-26T07:36:41.988Z,19.00
2022-09-26T07:39:12.031Z,19.20
2022-09-26T07:41:41.328Z,19.30
2022-09-26T07:47:15.696Z,19.60
2022-09-26T07:49:59.800Z,19.80
2022-09-26T07:52:57.677Z,19.90
2022-09-26T07:55:27.224Z,20.10
2022-09-26T07:58:33.939Z,20.30
2022-09-26T08:01:31.469Z,20.50
2022-09-26T08:04:26.151Z,20.70
2022-09-26T08:06:56.451Z,20.80
2022-09-26T08:09:25.141Z,21.00
2022-09-26T08:12:29.182Z,21.10
2022-09-26T08:15:06.359Z,21.30
2022-09-26T08:17:42.569Z,21.50
2022-09-26T08:20:12.283Z,21.70
2022-09-26T08:22:42.151Z,21.80
2022-09-26T08:25:13.162Z,22.00
2022-09-26T08:28:02.143Z,22.20
2022-09-26T08:30:35.739Z,22.50
2022-09-26T08:33:07.325Z,22.70
2022-09-26T08:35:38.953Z,23.00
2022-09-26T08:38:35.686Z,23.10
2022-09-26T08:41:47.607Z,23.30
2022-09-26T08:44:38.507Z,23.50
2022-09-26T08:47:35.390Z,23.60
2022-09-26T08:50:32.848Z,23.80
2022-09-26T08:53:03.703Z,23.90
2022-09-26T08:55:37.573Z,24.10
2022-09-26T08:58:06.905Z,24.30
2022-09-26T09:00:38.671Z,24.40
2022-09-26T09:03:17.962Z,24.60
2022-09-26T09:06:06.873Z,24.70
2022-09-26T09:08:37.294Z,24.90
2022-09-26T09:11:31.559Z,25.10
2022-09-26T09:14:06.783Z,25.30
2022-09-26T09:17:01.277Z,25.60
2022-09-26T09:19:54.480Z,25.70
2022-09-26T09:22:53.668Z,25.90
2022-09-26T09:25:32.018Z,26.00
2022-09-26T09:28:09.293Z,26.10
2022-09-26T09:30:42.877Z,26.20
2022-09-26T09:33:39.769Z,26.30
2022-09-26T09:36:38.267Z,26.40
2022-09-26T09:39:25.187Z,26.60
2022-09-26T09:42:07.850Z,26.60
2022-09-26T09:44:46.704Z,26.80
2022-09-26T09:47:23.094Z,26.90
2022-09-26T09:49:51.707Z,27.10
2022-09-26T09:52:26.873Z,27.20
2022-09-26T09:55:01.274Z,27.40
2022-09-26T09:57:47.307Z,27.60
2022-09-26T10:00:26.017Z,27.80
2022-09-26T10:03:07.738Z,28.10
2022-09-26T10:05:41.933Z,28.50
2022-09-26T10:08:14.856Z,28.80
2022-09-26T10:11:08.743Z,29.30
2022-09-26T10:13:58.002Z,30.20
2022-09-26T10:16:37.422Z,31.30
2022-09-26T10:19:10.690Z,32.10
2022-09-26T10:21:40.910Z,32.70
2022-09-26T10:24:24.185Z,33.30
2022-09-26T10:26:59.647Z,33.90
2022-09-26T10:29:37.829Z,34.40
2022-09-26T10:32:10.002Z,34.70
2022-09-26T10:34:41.669Z,35.00
2022-09-26T10:37:24.550Z,35.10
2022-09-26T10:40:41.067Z,35.20
2022-09-26T10:43:21.202Z,35.30
2022-09-26T10:45:53.674Z,35.50
2022-09-26T10:48:51.999Z,35.50
2022-09-26T10:51:55.715Z,35.60
2022-09-26T10:54:29.497Z,35.70
2022-09-26T10:56:59.502Z,35.60
2022-09-26T10:59:36.377Z,35.50
2022-09-26T11:02:06.013Z,35.40
2022-09-26T11:04:53.912Z,35.30
2022-09-26T11:07:43.278Z,35.20
2022-09-26T11:10:25.894Z,35.20
2022-09-26T11:13:16.348Z,35.10
2022-09-26T11:15:53.888Z,35.10
2022-09-26T11:18:26.429Z,35.00
2022-09-26T11:20:58.604Z,35.10
2022-09-26T11:23:32.774Z,35.20
2022-09-26T11:26:08.118Z,35.30
2022-09-26T11:28:40.698Z,35.30
2022-09-26T11:31:28.892Z,35.20
2022-09-26T11:34:31.442Z,35.10
2022-09-26T11:37:31.675Z,34.70
2022-09-26T11:40:22.421Z,34.30
2022-09-26T11:43:02.138Z,33.70
2022-09-26T11:45:39.968Z,33.20
2022-09-26T11:48:52.482Z,32.70
2022-09-26T11:51:59.508Z,32.20
2022-09-26T11:54:56.911Z,31.70
2022-09-26T11:57:35.694Z,31.40
2022-09-26T12:00:07.530Z,31.20
2022-09-26T12:02:49.506Z,31.40
2022-09-26T12:05:27.267Z,31.70
2022-09-26T12:08:01.641Z,32.00
2022-09-26T12:10:36.357Z,32.40
2022-09-26T12:13:16.333Z,32.50
2022-09-26T12:15:47.494Z,32.50
2022-09-26T12:18:19.194Z,32.20
2022-09-26T12:20:53.081Z,31.80
2022-09-26T12:23:27.927Z,31.40
2022-09-26T12:26:06.347Z,31.00
2022-09-26T12:28:54.613Z,30.60
2022-09-26T12:31:30.030Z,30.40
2022-09-26T12:34:14.554Z,30.10
2022-09-26T12:36:49.644Z,29.90
2022-09-26T12:39:27.297Z,29.80
2022-09-26T12:42:13.584Z,29.70
2022-09-26T12:44:52.312Z,29.50
2022-09-26T12:47:35.314Z,29.40
2022-09-26T12:50:18.863Z,29.40
2022-09-26T12:53:05.368Z,29.30
2022-09-26T12:55:38.944Z,29.10
2022-09-26T12:58:13.928Z,29.10
2022-09-26T13:00:48.152Z,29.00
2022-09-26T13:03:48.789Z,29.00
2022-09-26T13:06:34.436Z,28.90
2022-09-26T13:09:09.877Z,28.90
2022-09-26T13:11:44.370Z,28.90
2022-09-26T13:14:20.284Z,28.90
2022-09-26T13:16:56.531Z,28.80
2022-09-26T13:19:31.179Z,28.70
2022-09-26T13:22:02.526Z,28.60
2022-09-26T13:24:47.732Z,28.60
2022-09-26T13:27:19.403Z,28.50
2022-09-26T13:29:59.505Z,28.50
2022-09-26T13:32:37.010Z,28.50
2022-09-26T13:35:08.070Z,28.50
2022-09-26T13:37:41.813Z,28.60
2022-09-26T13:40:21.503Z,28.60
2022-09-26T13:42:52.111Z,28.70
2022-09-26T13:45:24.178Z,28.70
2022-09-26T13:47:57.216Z,28.70
2022-09-26T13:50:28.817Z,28.50
2022-09-26T13:53:06.160Z,28.40
2022-09-26T13:55:36.182Z,28.20
2022-09-26T13:58:08.090Z,28.10
2022-09-26T14:00:49.433Z,28.00
2022-09-26T14:03:48.137Z,27.90
2022-09-26T14:06:27.828Z,27.90
2022-09-26T14:09:14.021Z,28.00
2022-09-26T14:11:46.635Z,28.00
2022-09-26T14:14:26.976Z,28.00
2022-09-26T14:16:56.923Z,28.00
2022-09-26T14:19:30.191Z,28.00
2022-09-26T14:22:02.885Z,28.00
2022-09-26T14:24:39.443Z,28.00
2022-09-26T14:27:40.911Z,27.90
2022-09-26T14:30:26.675Z,27.90
2022-09-26T14:33:03.586Z,27.90
2022-09-26T14:35:33.458Z,27.80
2022-09-26T14:38:05.101Z,27.80
2022-09-26T14:40:56.663Z,27.70
2022-09-26T14:43:26.429Z,27.70
2022-09-26T14:46:02.088Z,27.60
2022-09-26T14:48:33.727Z,27.50
2022-09-26T14:51:03.923Z,27.50
2022-09-26T14:53:37.403Z,27.40
2022-09-26T14:56:08.236Z,27.30
2022-09-26T14:58:48.504Z,27.20
2022-09-26T15:01:20.569Z,27.10
2022-09-26T15:03:54.229Z,27.00
2022-09-26T15:06:23.637Z,26.90
2022-09-26T15:08:55.917Z,26.80
2022-09-26T15:11:32.762Z,26.70
2022-09-26T15:14:03.313Z,26.60
2022-09-26T15:16:35.051Z,26.50
2022-09-26T15:19:07.097Z,26.30
2022-09-26T15:21:37.980Z,26.20
2022-09-26T15:24:25.308Z,26.10
2022-09-26T15:26:54.224Z,25.90
2022-09-26T15:29:24.291Z,25.80
2022-09-26T15:31:53.366Z,25.60
2022-09-26T15:34:23.530Z,25.50
2022-09-26T15:36:56.985Z,25.40
2022-09-26T15:39:49.280Z,25.20
2022-09-26T15:42:40.409Z,25.00
2022-09-26T15:45:33.740Z,24.90
2022-09-26T15:48:03.459Z,24.70
2022-09-26T15:50:37.120Z,24.50
2022-09-26T15:53:08.360Z,24.40
2022-09-26T15:55:49.230Z,24.20
2022-09-26T15:58:20.645Z,24.10
2022-09-26T16:00:51.854Z,24.00
2022-09-26T16:03:37.738Z,24.00
2022-09-26T16:06:09.304Z,23.90
2022-09-26T16:08:41.656Z,23.80
2022-09-26T16:11:10.402Z,23.70
2022-09-26T16:13:42.165Z,23.60
2022-09-26T16:16:15.791Z,23.50
2022-09-26T16:18:47.387Z,23.30
2022-09-26T16:21:16.742Z,23.20
2022-09-26T16:23:49.705Z,22.90
2022-09-26T16:26:31.764Z,22.80
2022-09-26T16:29:01.850Z,22.60
2022-09-26T16:31:36.728Z,22.40
2022-09-26T16:34:17.366Z,22.20
2022-09-26T16:36:46.608Z,22.10
2022-09-26T16:39:20.532Z,22.00
2022-09-26T16:42:03.387Z,21.90
2022-09-26T16:44:36.399Z,21.70
2022-09-26T16:47:06.945Z,21.60
2022-09-26T16:49:46.451Z,21.50
2022-09-26T16:52:34.604Z,21.40
2022-09-26T16:55:06.326Z,21.30
2022-09-26T16:57:36.596Z,21.10
2022-09-26T17:00:31.535Z,21.10
2022-09-26T17:03:00.371Z,20.90
2022-09-26T17:05:30.172Z,20.80
2022-09-26T17:07:58.731Z,20.70
2022-09-26T17:10:27.570Z,20.60
2022-09-26T17:12:56.588Z,20.60
2022-09-26T17:15:30.251Z,20.50
2022-09-26T17:18:01.277Z,20.40
2022-09-26T17:20:30.295Z,20.30
2022-09-26T17:23:11.957Z,20.20
2022-09-26T17:25:54.160Z,20.10
2022-09-26T17:28:31.347Z,20.00
2022-09-26T17:31:06.583Z,19.90
2022-09-26T17:33:39.457Z,19.80
2022-09-26T17:36:29.343Z,19.70
2022-09-26T17:39:01.004Z,19.60
2022-09-26T17:41:32.911Z,19.50
2022-09-26T17:44:02.006Z,19.40
2022-09-26T17:46:32.811Z,19.30
2022-09-26T17:49:05.454Z,19.30
2022-09-26T17:51:36.025Z,19.20
2022-09-26T17:54:07.332Z,19.10
2022-09-26T17:56:36.416Z,19.10
2022-09-26T17:59:12.658Z,19.10
2022-09-26T18:01:43.086Z,19.10
2022-09-26T18:04:18.091Z,19.00
2022-09-26T18:06:47.166Z,19.00
2022-09-26T18:09:17.403Z,19.00
2022-09-26T18:11:52.612Z,18.90
2022-09-26T18:14:42.072Z,18.90
2022-09-26T18:17:15.724Z,18.80
2022-09-26T18:19:44.605Z,18.80
2022-09-26T18:22:18.404Z,18.70
2022-09-26T18:24:50.080Z,18.70
2022-09-26T18:27:18.934Z,18.60
2022-09-26T18:29:48.725Z,18.60
2022-09-26T18:32:27.108Z,18.50
2022-09-26T18:34:55.819Z,18.40
2022-09-26T18:37:24.754Z,18.40
2022-09-26T18:39:55.756Z,18.30
2022-09-26T18:42:27.925Z,18.30
2022-09-26T18:45:03.878Z,18.20
2022-09-26T18:47:52.503Z,18.20
2022-09-26T18:50:24.697Z,18.10
2022-09-26T18:52:54.067Z,18.00
2022-09-26T18:55:41.864Z,18.00
2022-09-26T18:58:28.312Z,17.90
2022-09-26T19:01:00.769Z,17.90
2022-09-26T19:03:33.568Z,17.80
2022-09-26T19:06:06.112Z,17.70
2022-09-26T19:08:37.715Z,17.70
2022-09-26T19:11:26.246Z,17.60
2022-09-26T19:13:57.366Z,17.60
2022-09-26T19:16:26.606Z,17.50
2022-09-26T19:18:56.826Z,17.40
2022-09-26T19:21:32.475Z,17.30
2022-09-26T19:24:06.575Z,17.20
2022-09-26T19:26:40.379Z,17.10
2022-09-26T19:29:33.906Z,17.00
2022-09-26T19:32:03.697Z,17.00
2022-09-26T19:34:34.565Z,16.90
2022-09-26T19:37:04.268Z,16.90
2022-09-26T19:39:33.485Z,16.80
2022-09-26T19:42:02.208Z,16.80
2022-09-26T19:44:31.164Z,16.80
2022-09-26T19:47:00.361Z,16.80
2022-09-26T19:49:32.527Z,16.80
2022-09-26T19:52:03.203Z,16.80
2022-09-26T19:54:32.010Z,16.80
2022-09-26T19:57:00.693Z,16.80
2022-09-26T19:59:29.532Z,16.80
2022-09-26T20:01:58.613Z,16.80
2022-09-26T20:04:27.305Z,16.80
2022-09-26T20:06:55.958Z,16.80
2022-09-26T20:09:29.194Z,16.80
2022-09-26T20:11:58.133Z,16.70
2022-09-26T20:14:27.690Z,16.70
2022-09-26T20:16:59.370Z,16.70
2022-09-26T20:19:38.357Z,16.60
2022-09-26T20:22:09.633Z,16.60
2022-09-26T20:24:58.071Z,16.50
2022-09-26T20:27:29.592Z,16.50
2022-09-26T20:30:35.128Z,16.40
2022-09-26T20:33:04.316Z,16.40
2022-09-26T20:35:36.965Z,16.40
2022-09-26T20:38:08.688Z,16.40
2022-09-26T20:40:40.410Z,16.30
2022-09-26T20:43:16.392Z,16.30
2022-09-26T20:45:45.744Z,16.30
2022-09-26T20:48:23.289Z,16.30
2022-09-26T20:50:53.067Z,16.20
2022-09-26T20:53:24.509Z,16.20
2022-09-26T20:55:55.981Z,16.20
2022-09-26T20:58:44.082Z,16.10
2022-09-26T21:01:15.171Z,16.00
2022-09-26T21:03:45.170Z,16.00
2022-09-26T21:06:18.349Z,16.00
2022-09-26T21:08:48.087Z,15.90
2022-09-26T21:11:21.068Z,15.90
2022-09-26T21:13:50.616Z,15.90
2022-09-26T21:16:22.085Z,15.90
2022-09-26T21:18:53.263Z,16.00
2022-09-26T21:21:25.013Z,16.00
2022-09-26T21:24:22.710Z,16.00
2022-09-26T21:26:55.060Z,16.00
2022-09-26T21:29:23.858Z,15.90
2022-09-26T21:31:56.368Z,15.90
2022-09-26T21:34:27.399Z,15.80
2022-09-26T21:36:59.666Z,15.70
2022-09-26T21:39:29.869Z,15.70
2022-09-26T21:42:04.502Z,15.70
2022-09-26T21:44:57.981Z,15.60
2022-09-26T21:47:28.308Z,15.60
2022-09-26T21:50:00.496Z,15.60
2022-09-26T21:52:34.560Z,15.60
2022-09-26T21:55:25.752Z,15.60
2022-09-26T21:58:00.340Z,15.70
2022-09-26T22:00:29.282Z,15.70
2022-09-26T22:03:00.560Z,15.80
2022-09-26T22:05:29.535Z,15.70
2022-09-26T22:07:58.777Z,15.80
2022-09-26T22:10:29.566Z,15.70
2022-09-26T22:13:00.219Z,15.60
2022-09-26T22:15:29.263Z,15.60
2022-09-26T22:17:57.964Z,15.40
2022-09-26T22:20:26.652Z,15.40
2022-09-26T22:22:55.828Z,15.30
2022-09-26T22:25:24.855Z,15.20
2022-09-26T22:27:53.573Z,15.20
2022-09-26T22:30:23.882Z,15.10
2022-09-26T22:32:52.664Z,15.10
2022-09-26T22:35:22.179Z,15.10
2022-09-26T22:37:50.974Z,15.00
2022-09-26T22:40:19.708Z,15.00
2022-09-26T22:42:50.448Z,15.00
2022-09-26T22:45:19.374Z,14.90
2022-09-26T22:47:49.498Z,14.80
2022-09-26T22:50:18.467Z,14.80
2022-09-26T22:52:47.451Z,14.80
2022-09-26T22:55:19.419Z,14.80
2022-09-26T22:57:51.760Z,14.80
2022-09-26T23:00:20.834Z,14.80
2022-09-26T23:02:51.175Z,14.80
2022-09-26T23:05:20.139Z,14.80
2022-09-26T23:07:48.976Z,14.90
2022-09-26T23:10:18.226Z,14.90
2022-09-26T23:12:51.031Z,15.00
2022-09-26T23:15:20.109Z,15.00
2022-09-26T23:17:53.131Z,15.10
2022-09-26T23:20:21.853Z,15.10
2022-09-26T23:22:50.931Z,15.20
2022-09-26T23:25:19.754Z,15.20
2022-09-26T23:27:48.416Z,15.30
2022-09-26T23:30:17.380Z,15.40
2022-09-26T23:32:46.213Z,15.50
2022-09-26T23:35:16.588Z,15.50
2022-09-26T23:37:45.447Z,15.50
2022-09-26T23:40:14.194Z,15.60
2022-09-26T23:42:42.897Z,15.60
2022-09-26T23:45:12.442Z,15.60
2022-09-26T23:47:41.217Z,15.60
2022-09-26T23:50:10.731Z,15.60
2022-09-26T23:52:41.088Z,15.60
2022-09-26T23:55:10.627Z,15.50
2022-09-26T23:57:39.308Z,15.50
